sensor_id;sensor_type;location;lat;lon;timestamp;P1;durP1;ratioP1;P2;durP2;ratioP2
62037;SDS011;47991;42.974;12.082;2023-10-08T00:00:26;17.40;;;11.80;;
62037;SDS011;47991;42.974;12.082;2023-10-08T00:03:31;16.30;;;12.00;;
62037;SDS011;47991;42.974;12.082;2023-10-08T00:06:02;14.60;;;11.70;;
62037;SDS011;47991;42.974;12.082;2023-10-08T00:08:33;16.80;;;11.90;;
62037;SDS011;47991;42.974;12.082;2023-10-08T00:11:00;16.20;;;11.80;;
62037;SDS011;47991;42.974;12.082;2023-10-08T00:13:35;14.80;;;12.20;;
62037;SDS011;47991;42.974;12.082;2023-10-08T00:16:09;14.40;;;11.90;;
62037;SDS011;47991;42.974;12.082;2023-10-08T00:18:38;16.80;;;11.50;;
62037;SDS011;47991;42.974;12.082;2023-10-08T00:23:38;15.80;;;13.00;;
62037;SDS011;47991;42.974;12.082;2023-10-08T00:26:25;13.80;;;10.00;;
62037;SDS011;47991;42.974;12.082;2023-10-08T00:28:57;16.70;;;11.70;;
62037;SDS011;47991;42.974;12.082;2023-10-08T00:31:26;13.60;;;11.30;;
62037;SDS011;47991;42.974;12.082;2023-10-08T00:33:57;15.30;;;11.50;;
62037;SDS011;47991;42.974;12.082;2023-10-08T00:36:24;14.40;;;11.20;;
62037;SDS011;47991;42.974;12.082;2023-10-08T00:38:51;14.50;;;11.30;;
62037;SDS011;47991;42.974;12.082;2023-10-08T00:41:22;17.00;;;12.00;;
62037;SDS011;47991;42.974;12.082;2023-10-08T00:43:49;14.80;;;11.70;;
62037;SDS011;47991;42.974;12.082;2023-10-08T00:46:17;15.30;;;11.50;;
62037;SDS011;47991;42.974;12.082;2023-10-08T00:48:50;14.90;;;12.60;;
62037;SDS011;47991;42.974;12.082;2023-10-08T00:51:21;17.50;;;12.90;;
62037;SDS011;47991;42.974;12.082;2023-10-08T00:53:51;16.30;;;10.80;;
62037;SDS011;47991;42.974;12.082;2023-10-08T00:56:28;15.40;;;11.80;;
62037;SDS011;47991;42.974;12.082;2023-10-08T00:59:14;15.50;;;11.30;;
62037;SDS011;47991;42.974;12.082;2023-10-08T01:01:42;15.00;;;11.50;;
62037;SDS011;47991;42.974;12.082;2023-10-08T01:04:19;16.30;;;11.80;;
62037;SDS011;47991;42.974;12.082;2023-10-08T01:06:57;15.70;;;11.30;;
62037;SDS011;47991;42.974;12.082;2023-10-08T01:09:39;16.10;;;12.60;;
62037;SDS011;47991;42.974;12.082;2023-10-08T01:12:13;17.40;;;12.70;;
62037;SDS011;47991;42.974;12.082;2023-10-08T01:14:54;15.50;;;10.40;;
62037;SDS011;47991;42.974;12.082;2023-10-08T01:17:22;16.70;;;10.60;;
62037;SDS011;47991;42.974;12.082;2023-10-08T01:19:53;15.10;;;12.30;;
62037;SDS011;47991;42.974;12.082;2023-10-08T01:22:23;16.60;;;10.60;;
62037;SDS011;47991;42.974;12.082;2023-10-08T01:24:53;16.70;;;12.20;;
62037;SDS011;47991;42.974;12.082;2023-10-08T01:27:20;15.70;;;12.20;;
62037;SDS011;47991;42.974;12.082;2023-10-08T01:29:51;16.30;;;9.90;;
62037;SDS011;47991;42.974;12.082;2023-10-08T01:32:18;16.10;;;12.00;;
62037;SDS011;47991;42.974;12.082;2023-10-08T01:34:47;19.00;;;11.20;;
62037;SDS011;47991;42.974;12.082;2023-10-08T01:37:15;16.60;;;10.60;;
62037;SDS011;47991;42.974;12.082;2023-10-08T01:39:47;14.60;;;10.60;;
62037;SDS011;47991;42.974;12.082;2023-10-08T01:42:16;14.60;;;11.60;;
62037;SDS011;47991;42.974;12.082;2023-10-08T01:44:48;15.50;;;11.70;;
62037;SDS011;47991;42.974;12.082;2023-10-08T01:47:17;15.20;;;11.90;;
62037;SDS011;47991;42.974;12.082;2023-10-08T01:49:44;17.60;;;11.50;;
62037;SDS011;47991;42.974;12.082;2023-10-08T01:52:13;15.90;;;13.20;;
62037;SDS011;47991;42.974;12.082;2023-10-08T01:54:49;17.70;;;10.30;;
62037;SDS011;47991;42.974;12.082;2023-10-08T01:57:20;16.90;;;13.20;;
62037;SDS011;47991;42.974;12.082;2023-10-08T01:59:46;15.30;;;10.00;;
62037;SDS011;47991;42.974;12.082;2023-10-08T02:02:13;15.70;;;11.00;;
62037;SDS011;47991;42.974;12.082;2023-10-08T02:04:42;16.00;;;11.50;;
62037;SDS011;47991;42.974;12.082;2023-10-08T02:07:10;15.90;;;11.50;;
62037;SDS011;47991;42.974;12.082;2023-10-08T02:09:40;15.50;;;10.80;;
62037;SDS011;47991;42.974;12.082;2023-10-08T02:12:08;18.60;;;11.60;;
62037;SDS011;47991;42.974;12.082;2023-10-08T02:14:35;15.10;;;12.00;;
62037;SDS011;47991;42.974;12.082;2023-10-08T02:17:02;16.80;;;10.50;;
62037;SDS011;47991;42.974;12.082;2023-10-08T02:19:33;16.80;;;11.50;;
62037;SDS011;47991;42.974;12.082;2023-10-08T02:22:01;15.60;;;11.80;;
62037;SDS011;47991;42.974;12.082;2023-10-08T02:24:30;15.50;;;11.00;;
62037;SDS011;47991;42.974;12.082;2023-10-08T02:26:56;14.50;;;10.30;;
62037;SDS011;47991;42.974;12.082;2023-10-08T02:29:25;15.10;;;11.60;;
62037;SDS011;47991;42.974;12.082;2023-10-08T02:31:53;15.40;;;11.00;;
62037;SDS011;47991;42.974;12.082;2023-10-08T02:34:20;15.70;;;10.70;;
62037;SDS011;47991;42.974;12.082;2023-10-08T02:36:47;15.80;;;12.20;;
62037;SDS011;47991;42.974;12.082;2023-10-08T02:39:14;16.60;;;12.90;;
62037;SDS011;47991;42.974;12.082;2023-10-08T02:41:48;14.10;;;10.30;;
62037;SDS011;47991;42.974;12.082;2023-10-08T02:44:16;15.40;;;10.80;;
62037;SDS011;47991;42.974;12.082;2023-10-08T02:46:44;15.50;;;10.90;;
62037;SDS011;47991;42.974;12.082;2023-10-08T02:49:17;16.20;;;10.60;;
62037;SDS011;47991;42.974;12.082;2023-10-08T02:51:52;15.60;;;11.00;;
62037;SDS011;47991;42.974;12.082;2023-10-08T02:54:20;16.00;;;11.10;;
62037;SDS011;47991;42.974;12.082;2023-10-08T02:56:58;14.80;;;11.40;;
62037;SDS011;47991;42.974;12.082;2023-10-08T02:59:29;15.50;;;10.70;;
62037;SDS011;47991;42.974;12.082;2023-10-08T03:02:09;14.70;;;10.80;;
62037;SDS011;47991;42.974;12.082;2023-10-08T03:04:48;16.60;;;9.90;;
62037;SDS011;47991;42.974;12.082;2023-10-08T03:07:18;16.50;;;11.40;;
62037;SDS011;47991;42.974;12.082;2023-10-08T03:09:49;16.80;;;11.10;;
62037;SDS011;47991;42.974;12.082;2023-10-08T03:12:30;15.80;;;10.80;;
62037;SDS011;47991;42.974;12.082;2023-10-08T03:15:00;14.50;;;10.30;;
62037;SDS011;47991;42.974;12.082;2023-10-08T03:17:48;20.40;;;11.80;;
62037;SDS011;47991;42.974;12.082;2023-10-08T03:20:15;15.80;;;11.20;;
62037;SDS011;47991;42.974;12.082;2023-10-08T03:23:15;16.60;;;11.40;;
62037;SDS011;47991;42.974;12.082;2023-10-08T03:26:03;14.50;;;11.10;;
62037;SDS011;47991;42.974;12.082;2023-10-08T03:29:05;15.90;;;10.60;;
62037;SDS011;47991;42.974;12.082;2023-10-08T03:31:41;14.90;;;11.20;;
62037;SDS011;47991;42.974;12.082;2023-10-08T03:34:15;15.70;;;12.40;;
62037;SDS011;47991;42.974;12.082;2023-10-08T03:36:45;15.40;;;11.00;;
62037;SDS011;47991;42.974;12.082;2023-10-08T03:39:14;17.20;;;10.80;;
62037;SDS011;47991;42.974;12.082;2023-10-08T03:41:41;15.40;;;12.20;;
62037;SDS011;47991;42.974;12.082;2023-10-08T03:44:08;14.90;;;10.00;;
62037;SDS011;47991;42.974;12.082;2023-10-08T03:46:43;17.50;;;11.40;;
62037;SDS011;47991;42.974;12.082;2023-10-08T03:49:13;13.90;;;9.90;;
62037;SDS011;47991;42.974;12.082;2023-10-08T03:51:49;15.10;;;12.10;;
62037;SDS011;47991;42.974;12.082;2023-10-08T03:54:24;14.50;;;9.70;;
62037;SDS011;47991;42.974;12.082;2023-10-08T03:57:01;17.20;;;12.10;;
62037;SDS011;47991;42.974;12.082;2023-10-08T03:59:30;16.80;;;13.70;;
62037;SDS011;47991;42.974;12.082;2023-10-08T04:01:58;15.00;;;11.00;;
62037;SDS011;47991;42.974;12.082;2023-10-08T04:04:45;17.60;;;11.10;;
62037;SDS011;47991;42.974;12.082;2023-10-08T04:07:16;17.00;;;15.00;;
62037;SDS011;47991;42.974;12.082;2023-10-08T04:09:55;17.50;;;11.30;;
62037;SDS011;47991;42.974;12.082;2023-10-08T04:12:36;17.10;;;12.30;;
62037;SDS011;47991;42.974;12.082;2023-10-08T04:15:08;16.60;;;11.50;;
62037;SDS011;47991;42.974;12.082;2023-10-08T04:17:35;16.50;;;11.50;;
62037;SDS011;47991;42.974;12.082;2023-10-08T04:20:12;15.60;;;12.00;;
62037;SDS011;47991;42.974;12.082;2023-10-08T04:22:59;18.60;;;11.40;;
62037;SDS011;47991;42.974;12.082;2023-10-08T04:25:32;14.60;;;10.20;;
62037;SDS011;47991;42.974;12.082;2023-10-08T04:27:59;15.10;;;11.20;;
62037;SDS011;47991;42.974;12.082;2023-10-08T04:30:32;15.80;;;9.60;;
62037;SDS011;47991;42.974;12.082;2023-10-08T04:33:00;14.60;;;11.20;;
62037;SDS011;47991;42.974;12.082;2023-10-08T04:35:42;14.50;;;10.30;;
62037;SDS011;47991;42.974;12.082;2023-10-08T04:38:22;14.70;;;11.00;;
62037;SDS011;47991;42.974;12.082;2023-10-08T04:40:52;16.60;;;11.70;;
62037;SDS011;47991;42.974;12.082;2023-10-08T04:43:23;15.90;;;11.00;;
62037;SDS011;47991;42.974;12.082;2023-10-08T04:45:54;15.30;;;11.10;;
62037;SDS011;47991;42.974;12.082;2023-10-08T04:48:25;17.50;;;11.30;;
62037;SDS011;47991;42.974;12.082;2023-10-08T04:50:56;16.60;;;12.10;;
62037;SDS011;47991;42.974;12.082;2023-10-08T04:53:26;18.10;;;14.90;;
62037;SDS011;47991;42.974;12.082;2023-10-08T04:56:04;18.00;;;12.20;;
62037;SDS011;47991;42.974;12.082;2023-10-08T04:58:32;18.70;;;12.40;;
62037;SDS011;47991;42.974;12.082;2023-10-08T05:01:02;16.80;;;12.00;;
62037;SDS011;47991;42.974;12.082;2023-10-08T05:03:58;16.40;;;11.40;;
62037;SDS011;47991;42.974;12.082;2023-10-08T05:06:26;16.80;;;12.90;;
62037;SDS011;47991;42.974;12.082;2023-10-08T05:11:50;15.30;;;10.50;;
62037;SDS011;47991;42.974;12.082;2023-10-08T05:14:20;18.10;;;11.20;;
62037;SDS011;47991;42.974;12.082;2023-10-08T05:17:00;16.70;;;11.40;;
62037;SDS011;47991;42.974;12.082;2023-10-08T05:19:47;17.70;;;11.60;;
62037;SDS011;47991;42.974;12.082;2023-10-08T05:22:23;17.20;;;11.60;;
62037;SDS011;47991;42.974;12.082;2023-10-08T05:24:54;17.40;;;12.90;;
62037;SDS011;47991;42.974;12.082;2023-10-08T05:27:35;15.20;;;10.20;;
62037;SDS011;47991;42.974;12.082;2023-10-08T05:30:23;16.30;;;11.50;;
62037;SDS011;47991;42.974;12.082;2023-10-08T05:33:21;18.60;;;12.40;;
62037;SDS011;47991;42.974;12.082;2023-10-08T05:35:52;18.40;;;13.40;;
62037;SDS011;47991;42.974;12.082;2023-10-08T05:38:36;19.50;;;12.60;;
62037;SDS011;47991;42.974;12.082;2023-10-08T05:41:03;21.20;;;13.10;;
62037;SDS011;47991;42.974;12.082;2023-10-08T05:43:33;21.30;;;16.10;;
62037;SDS011;47991;42.974;12.082;2023-10-08T05:46:04;19.90;;;13.30;;
62037;SDS011;47991;42.974;12.082;2023-10-08T05:48:51;24.10;;;17.70;;
62037;SDS011;47991;42.974;12.082;2023-10-08T05:51:32;18.80;;;14.50;;
62037;SDS011;47991;42.974;12.082;2023-10-08T05:54:15;17.50;;;13.50;;
62037;SDS011;47991;42.974;12.082;2023-10-08T05:57:07;16.50;;;12.70;;
62037;SDS011;47991;42.974;12.082;2023-10-08T05:59:39;16.30;;;12.40;;
62037;SDS011;47991;42.974;12.082;2023-10-08T06:02:19;16.80;;;12.40;;
62037;SDS011;47991;42.974;12.082;2023-10-08T06:05:08;17.30;;;13.50;;
62037;SDS011;47991;42.974;12.082;2023-10-08T06:07:39;16.80;;;13.00;;
62037;SDS011;47991;42.974;12.082;2023-10-08T06:10:19;15.80;;;12.90;;
62037;SDS011;47991;42.974;12.082;2023-10-08T06:15:40;17.80;;;14.30;;
62037;SDS011;47991;42.974;12.082;2023-10-08T06:18:28;17.80;;;14.00;;
62037;SDS011;47991;42.974;12.082;2023-10-08T06:20:56;15.50;;;13.20;;
62037;SDS011;47991;42.974;12.082;2023-10-08T06:23:26;17.30;;;13.30;;
62037;SDS011;47991;42.974;12.082;2023-10-08T06:26:01;18.60;;;13.30;;
62037;SDS011;47991;42.974;12.082;2023-10-08T06:28:41;17.60;;;12.60;;
62037;SDS011;47991;42.974;12.082;2023-10-08T06:31:10;15.70;;;11.20;;
62037;SDS011;47991;42.974;12.082;2023-10-08T06:33:44;15.50;;;12.00;;
62037;SDS011;47991;42.974;12.082;2023-10-08T06:36:11;13.30;;;11.20;;
62037;SDS011;47991;42.974;12.082;2023-10-08T06:38:39;15.30;;;11.30;;
62037;SDS011;47991;42.974;12.082;2023-10-08T06:41:08;13.50;;;10.80;;
62037;SDS011;47991;42.974;12.082;2023-10-08T06:43:43;13.70;;;10.40;;
62037;SDS011;47991;42.974;12.082;2023-10-08T06:46:29;15.90;;;11.90;;
62037;SDS011;47991;42.974;12.082;2023-10-08T06:51:26;46.10;;;13.30;;
62037;SDS011;47991;42.974;12.082;2023-10-08T06:53:52;29.10;;;12.90;;
62037;SDS011;47991;42.974;12.082;2023-10-08T06:56:20;21.50;;;12.80;;
62037;SDS011;47991;42.974;12.082;2023-10-08T06:58:47;17.50;;;12.20;;
62037;SDS011;47991;42.974;12.082;2023-10-08T07:01:16;15.90;;;12.20;;
62037;SDS011;47991;42.974;12.082;2023-10-08T07:03:51;16.10;;;12.00;;
62037;SDS011;47991;42.974;12.082;2023-10-08T07:06:18;18.40;;;14.70;;
62037;SDS011;47991;42.974;12.082;2023-10-08T07:09:03;17.50;;;14.50;;
62037;SDS011;47991;42.974;12.082;2023-10-08T07:11:32;16.50;;;13.00;;
62037;SDS011;47991;42.974;12.082;2023-10-08T07:14:05;18.90;;;14.00;;
62037;SDS011;47991;42.974;12.082;2023-10-08T07:16:32;16.00;;;11.90;;
62037;SDS011;47991;42.974;12.082;2023-10-08T07:19:01;18.10;;;13.60;;
62037;SDS011;47991;42.974;12.082;2023-10-08T07:21:28;14.70;;;12.40;;
62037;SDS011;47991;42.974;12.082;2023-10-08T07:23:55;16.30;;;11.80;;
62037;SDS011;47991;42.974;12.082;2023-10-08T07:26:23;18.00;;;12.30;;
62037;SDS011;47991;42.974;12.082;2023-10-08T07:28:51;16.20;;;11.70;;
62037;SDS011;47991;42.974;12.082;2023-10-08T07:31:20;19.10;;;13.80;;
62037;SDS011;47991;42.974;12.082;2023-10-08T07:33:53;16.20;;;13.20;;
62037;SDS011;47991;42.974;12.082;2023-10-08T07:36:25;15.90;;;12.50;;
62037;SDS011;47991;42.974;12.082;2023-10-08T07:38:54;16.90;;;12.90;;
62037;SDS011;47991;42.974;12.082;2023-10-08T07:41:22;17.00;;;13.90;;
62037;SDS011;47991;42.974;12.082;2023-10-08T07:43:49;22.60;;;15.20;;
62037;SDS011;47991;42.974;12.082;2023-10-08T07:46:23;21.40;;;17.50;;
62037;SDS011;47991;42.974;12.082;2023-10-08T07:48:53;26.20;;;19.90;;
62037;SDS011;47991;42.974;12.082;2023-10-08T07:51:24;19.20;;;16.10;;
62037;SDS011;47991;42.974;12.082;2023-10-08T07:57:28;21.60;;;16.40;;
62037;SDS011;47991;42.974;12.082;2023-10-08T08:30:13;19.70;;;14.70;;
62037;SDS011;47991;42.974;12.082;2023-10-08T08:32:59;18.20;;;14.00;;
62037;SDS011;47991;42.974;12.082;2023-10-08T08:35:27;18.00;;;14.00;;
62037;SDS011;47991;42.974;12.082;2023-10-08T08:37:54;19.40;;;13.80;;
62037;SDS011;47991;42.974;12.082;2023-10-08T08:40:20;17.60;;;13.50;;
62037;SDS011;47991;42.974;12.082;2023-10-08T08:42:48;17.40;;;11.90;;
62037;SDS011;47991;42.974;12.082;2023-10-08T08:45:20;19.00;;;12.50;;
62037;SDS011;47991;42.974;12.082;2023-10-08T08:47:48;17.40;;;11.60;;
62037;SDS011;47991;42.974;12.082;2023-10-08T08:50:15;16.20;;;12.40;;
62037;SDS011;47991;42.974;12.082;2023-10-08T08:52:43;16.90;;;11.70;;
62037;SDS011;47991;42.974;12.082;2023-10-08T08:55:12;14.90;;;11.40;;
62037;SDS011;47991;42.974;12.082;2023-10-08T08:57:47;18.60;;;11.40;;
62037;SDS011;47991;42.974;12.082;2023-10-08T09:00:15;17.50;;;11.20;;
62037;SDS011;47991;42.974;12.082;2023-10-08T09:02:44;15.60;;;11.50;;
62037;SDS011;47991;42.974;12.082;2023-10-08T09:07:57;14.80;;;9.70;;
62037;SDS011;47991;42.974;12.082;2023-10-08T09:10:29;17.60;;;10.10;;
62037;SDS011;47991;42.974;12.082;2023-10-08T09:13:04;14.20;;;10.50;;
62037;SDS011;47991;42.974;12.082;2023-10-08T09:15:34;13.90;;;9.50;;
62037;SDS011;47991;42.974;12.082;2023-10-08T09:18:03;14.50;;;10.40;;
62037;SDS011;47991;42.974;12.082;2023-10-08T09:20:31;14.70;;;10.30;;
62037;SDS011;47991;42.974;12.082;2023-10-08T09:23:08;15.80;;;10.30;;
62037;SDS011;47991;42.974;12.082;2023-10-08T09:25:39;15.60;;;9.90;;
62037;SDS011;47991;42.974;12.082;2023-10-08T09:28:10;14.70;;;10.00;;
62037;SDS011;47991;42.974;12.082;2023-10-08T09:30:41;14.60;;;10.50;;
62037;SDS011;47991;42.974;12.082;2023-10-08T09:33:11;14.00;;;10.20;;
62037;SDS011;47991;42.974;12.082;2023-10-08T09:35:39;11.90;;;9.10;;
62037;SDS011;47991;42.974;12.082;2023-10-08T09:41:03;14.60;;;9.40;;
62037;SDS011;47991;42.974;12.082;2023-10-08T09:43:30;14.80;;;9.80;;
62037;SDS011;47991;42.974;12.082;2023-10-08T09:46:00;14.90;;;9.70;;
62037;SDS011;47991;42.974;12.082;2023-10-08T09:48:37;14.00;;;9.60;;
62037;SDS011;47991;42.974;12.082;2023-10-08T09:51:05;12.70;;;9.20;;
62037;SDS011;47991;42.974;12.082;2023-10-08T09:56:24;13.20;;;9.40;;
62037;SDS011;47991;42.974;12.082;2023-10-08T09:58:55;17.90;;;9.60;;
62037;SDS011;47991;42.974;12.082;2023-10-08T10:01:22;13.60;;;9.30;;
62037;SDS011;47991;42.974;12.082;2023-10-08T10:03:51;14.00;;;9.00;;
62037;SDS011;47991;42.974;12.082;2023-10-08T10:06:18;13.70;;;9.10;;
62037;SDS011;47991;42.974;12.082;2023-10-08T10:08:45;12.30;;;8.50;;
62037;SDS011;47991;42.974;12.082;2023-10-08T10:11:14;14.50;;;9.40;;
62037;SDS011;47991;42.974;12.082;2023-10-08T10:13:47;13.30;;;8.90;;
62037;SDS011;47991;42.974;12.082;2023-10-08T10:16:20;14.50;;;8.90;;
62037;SDS011;47991;42.974;12.082;2023-10-08T10:18:51;13.00;;;8.90;;
62037;SDS011;47991;42.974;12.082;2023-10-08T10:21:28;14.00;;;9.30;;
62037;SDS011;47991;42.974;12.082;2023-10-08T10:23:57;13.50;;;8.90;;
62037;SDS011;47991;42.974;12.082;2023-10-08T10:26:28;13.60;;;9.20;;
62037;SDS011;47991;42.974;12.082;2023-10-08T10:31:42;19.60;;;9.60;;
62037;SDS011;47991;42.974;12.082;2023-10-08T10:34:24;15.20;;;9.40;;
62037;SDS011;47991;42.974;12.082;2023-10-08T10:36:55;14.90;;;9.30;;
62037;SDS011;47991;42.974;12.082;2023-10-08T10:39:49;12.40;;;7.60;;
62037;SDS011;47991;42.974;12.082;2023-10-08T10:42:19;14.60;;;8.60;;
62037;SDS011;47991;42.974;12.082;2023-10-08T10:44:54;12.20;;;9.10;;
62037;SDS011;47991;42.974;12.082;2023-10-08T10:47:23;12.00;;;8.90;;
62037;SDS011;47991;42.974;12.082;2023-10-08T10:49:53;12.20;;;8.80;;
62037;SDS011;47991;42.974;12.082;2023-10-08T10:52:27;12.80;;;8.90;;
62037;SDS011;47991;42.974;12.082;2023-10-08T10:55:13;11.00;;;8.20;;
62037;SDS011;47991;42.974;12.082;2023-10-08T10:57:41;11.90;;;9.10;;
62037;SDS011;47991;42.974;12.082;2023-10-08T11:00:10;13.30;;;8.20;;
62037;SDS011;47991;42.974;12.082;2023-10-08T11:02:56;15.00;;;9.30;;
62037;SDS011;47991;42.974;12.082;2023-10-08T11:05:26;12.20;;;8.70;;
62037;SDS011;47991;42.974;12.082;2023-10-08T11:07:58;14.10;;;8.10;;
62037;SDS011;47991;42.974;12.082;2023-10-08T11:10:34;14.20;;;8.30;;
62037;SDS011;47991;42.974;12.082;2023-10-08T11:13:05;11.30;;;8.10;;
62037;SDS011;47991;42.974;12.082;2023-10-08T11:15:41;12.70;;;8.00;;
62037;SDS011;47991;42.974;12.082;2023-10-08T11:18:09;12.00;;;8.00;;
62037;SDS011;47991;42.974;12.082;2023-10-08T11:20:37;14.70;;;7.60;;
62037;SDS011;47991;42.974;12.082;2023-10-08T11:23:06;13.40;;;8.20;;
62037;SDS011;47991;42.974;12.082;2023-10-08T11:25:55;10.10;;;7.50;;
62037;SDS011;47991;42.974;12.082;2023-10-08T11:28:32;12.60;;;7.90;;
62037;SDS011;47991;42.974;12.082;2023-10-08T11:31:01;12.20;;;8.40;;
62037;SDS011;47991;42.974;12.082;2023-10-08T11:33:37;11.90;;;8.00;;
62037;SDS011;47991;42.974;12.082;2023-10-08T11:36:07;11.30;;;7.40;;
62037;SDS011;47991;42.974;12.082;2023-10-08T11:38:46;12.80;;;7.60;;
62037;SDS011;47991;42.974;12.082;2023-10-08T11:41:20;11.10;;;7.50;;
62037;SDS011;47991;42.974;12.082;2023-10-08T11:43:56;12.10;;;7.60;;
62037;SDS011;47991;42.974;12.082;2023-10-08T11:46:29;10.80;;;7.60;;
62037;SDS011;47991;42.974;12.082;2023-10-08T11:48:59;12.30;;;7.10;;
62037;SDS011;47991;42.974;12.082;2023-10-08T11:51:31;11.30;;;7.10;;
62037;SDS011;47991;42.974;12.082;2023-10-08T11:54:02;11.80;;;7.30;;
62037;SDS011;47991;42.974;12.082;2023-10-08T11:56:37;10.30;;;7.10;;
62037;SDS011;47991;42.974;12.082;2023-10-08T11:59:05;10.40;;;7.00;;
62037;SDS011;47991;42.974;12.082;2023-10-08T12:01:38;12.00;;;7.50;;
62037;SDS011;47991;42.974;12.082;2023-10-08T12:04:09;10.40;;;7.10;;
62037;SDS011;47991;42.974;12.082;2023-10-08T12:06:42;9.70;;;6.60;;
62037;SDS011;47991;42.974;12.082;2023-10-08T12:09:13;13.30;;;7.60;;
62037;SDS011;47991;42.974;12.082;2023-10-08T12:11:41;10.90;;;7.20;;
62037;SDS011;47991;42.974;12.082;2023-10-08T12:14:10;10.10;;;6.50;;
62037;SDS011;47991;42.974;12.082;2023-10-08T12:16:37;11.40;;;7.20;;
62037;SDS011;47991;42.974;12.082;2023-10-08T12:19:06;10.40;;;7.30;;
62037;SDS011;47991;42.974;12.082;2023-10-08T12:21:42;12.40;;;7.00;;
62037;SDS011;47991;42.974;12.082;2023-10-08T12:24:12;10.10;;;6.80;;
62037;SDS011;47991;42.974;12.082;2023-10-08T12:26:40;11.40;;;6.80;;
62037;SDS011;47991;42.974;12.082;2023-10-08T12:29:13;10.80;;;7.00;;
62037;SDS011;47991;42.974;12.082;2023-10-08T12:31:41;19.40;;;7.20;;
62037;SDS011;47991;42.974;12.082;2023-10-08T12:34:08;13.30;;;7.30;;
62037;SDS011;47991;42.974;12.082;2023-10-08T12:39:04;10.50;;;7.20;;
62037;SDS011;47991;42.974;12.082;2023-10-08T12:41:41;31.30;;;8.00;;
62037;SDS011;47991;42.974;12.082;2023-10-08T12:44:10;14.60;;;7.70;;
62037;SDS011;47991;42.974;12.082;2023-10-08T12:46:38;12.10;;;6.70;;
62037;SDS011;47991;42.974;12.082;2023-10-08T12:49:05;9.60;;;6.50;;
62037;SDS011;47991;42.974;12.082;2023-10-08T12:51:33;11.30;;;6.90;;
62037;SDS011;47991;42.974;12.082;2023-10-08T12:54:00;10.90;;;6.60;;
62037;SDS011;47991;42.974;12.082;2023-10-08T12:56:37;10.80;;;7.00;;
62037;SDS011;47991;42.974;12.082;2023-10-08T12:59:15;43.10;;;8.10;;
62037;SDS011;47991;42.974;12.082;2023-10-08T13:01:48;11.10;;;6.20;;
62037;SDS011;47991;42.974;12.082;2023-10-08T13:04:20;10.90;;;6.70;;
62037;SDS011;47991;42.974;12.082;2023-10-08T13:07:01;10.90;;;6.60;;
62037;SDS011;47991;42.974;12.082;2023-10-08T13:09:29;10.40;;;6.70;;
62037;SDS011;47991;42.974;12.082;2023-10-08T13:12:03;9.10;;;6.50;;
62037;SDS011;47991;42.974;12.082;2023-10-08T13:14:31;10.00;;;6.70;;
62037;SDS011;47991;42.974;12.082;2023-10-08T13:17:01;8.60;;;6.00;;
62037;SDS011;47991;42.974;12.082;2023-10-08T13:19:28;9.50;;;6.40;;
62037;SDS011;47991;42.974;12.082;2023-10-08T13:21:57;9.80;;;7.00;;
62037;SDS011;47991;42.974;12.082;2023-10-08T13:24:25;11.40;;;6.50;;
62037;SDS011;47991;42.974;12.082;2023-10-08T13:26:54;10.10;;;7.30;;
62037;SDS011;47991;42.974;12.082;2023-10-08T13:29:24;9.60;;;6.70;;
62037;SDS011;47991;42.974;12.082;2023-10-08T13:31:53;11.60;;;6.40;;
62037;SDS011;47991;42.974;12.082;2023-10-08T13:34:20;9.20;;;6.40;;
62037;SDS011;47991;42.974;12.082;2023-10-08T13:36:48;13.30;;;6.90;;
62037;SDS011;47991;42.974;12.082;2023-10-08T13:39:16;9.50;;;6.30;;
62037;SDS011;47991;42.974;12.082;2023-10-08T13:41:46;8.80;;;6.10;;
62037;SDS011;47991;42.974;12.082;2023-10-08T13:44:16;10.00;;;6.30;;
62037;SDS011;47991;42.974;12.082;2023-10-08T13:46:42;9.40;;;6.10;;
62037;SDS011;47991;42.974;12.082;2023-10-08T13:49:15;10.70;;;7.00;;
62037;SDS011;47991;42.974;12.082;2023-10-08T13:51:43;9.70;;;6.40;;
62037;SDS011;47991;42.974;12.082;2023-10-08T13:54:11;9.90;;;6.80;;
62037;SDS011;47991;42.974;12.082;2023-10-08T13:56:37;10.60;;;6.80;;
62037;SDS011;47991;42.974;12.082;2023-10-08T13:59:04;11.20;;;6.90;;
62037;SDS011;47991;42.974;12.082;2023-10-08T14:01:41;13.60;;;6.40;;
62037;SDS011;47991;42.974;12.082;2023-10-08T14:04:12;14.30;;;7.20;;
62037;SDS011;47991;42.974;12.082;2023-10-08T14:06:43;11.60;;;6.50;;
62037;SDS011;47991;42.974;12.082;2023-10-08T14:09:18;9.90;;;6.40;;
62037;SDS011;47991;42.974;12.082;2023-10-08T14:11:49;10.70;;;6.90;;
62037;SDS011;47991;42.974;12.082;2023-10-08T14:14:19;10.00;;;6.80;;
62037;SDS011;47991;42.974;12.082;2023-10-08T14:16:50;14.70;;;7.10;;
62037;SDS011;47991;42.974;12.082;2023-10-08T14:19:20;10.30;;;6.50;;
62037;SDS011;47991;42.974;12.082;2023-10-08T14:21:55;10.60;;;6.90;;
62037;SDS011;47991;42.974;12.082;2023-10-08T14:24:43;9.10;;;6.60;;
62037;SDS011;47991;42.974;12.082;2023-10-08T14:27:12;10.60;;;6.70;;
62037;SDS011;47991;42.974;12.082;2023-10-08T14:32:11;9.50;;;5.90;;
62037;SDS011;47991;42.974;12.082;2023-10-08T14:34:39;11.30;;;6.10;;
62037;SDS011;47991;42.974;12.082;2023-10-08T14:37:21;8.70;;;6.00;;
62037;SDS011;47991;42.974;12.082;2023-10-08T14:40:08;10.80;;;6.40;;
62037;SDS011;47991;42.974;12.082;2023-10-08T14:42:54;10.60;;;6.40;;
62037;SDS011;47991;42.974;12.082;2023-10-08T14:45:29;11.00;;;6.80;;
62037;SDS011;47991;42.974;12.082;2023-10-08T14:48:01;10.00;;;6.10;;
62037;SDS011;47991;42.974;12.082;2023-10-08T14:50:28;9.20;;;6.10;;
62037;SDS011;47991;42.974;12.082;2023-10-08T14:52:59;10.60;;;6.20;;
62037;SDS011;47991;42.974;12.082;2023-10-08T14:55:32;9.80;;;6.40;;
62037;SDS011;47991;42.974;12.082;2023-10-08T14:58:02;9.90;;;6.10;;
62037;SDS011;47991;42.974;12.082;2023-10-08T15:00:38;10.20;;;6.60;;
62037;SDS011;47991;42.974;12.082;2023-10-08T15:03:08;12.80;;;6.20;;
62037;SDS011;47991;42.974;12.082;2023-10-08T15:05:35;11.10;;;6.90;;
62037;SDS011;47991;42.974;12.082;2023-10-08T15:08:03;10.60;;;6.10;;
62037;SDS011;47991;42.974;12.082;2023-10-08T15:10:36;12.80;;;7.00;;
62037;SDS011;47991;42.974;12.082;2023-10-08T15:13:03;14.50;;;6.70;;
62037;SDS011;47991;42.974;12.082;2023-10-08T15:15:30;11.80;;;6.60;;
62037;SDS011;47991;42.974;12.082;2023-10-08T15:18:01;10.80;;;6.70;;
62037;SDS011;47991;42.974;12.082;2023-10-08T15:20:32;10.80;;;6.90;;
62037;SDS011;47991;42.974;12.082;2023-10-08T15:23:00;10.00;;;6.80;;
62037;SDS011;47991;42.974;12.082;2023-10-08T15:25:27;12.40;;;6.90;;
62037;SDS011;47991;42.974;12.082;2023-10-08T15:27:55;10.20;;;6.80;;
62037;SDS011;47991;42.974;12.082;2023-10-08T15:30:22;9.70;;;6.50;;
62037;SDS011;47991;42.974;12.082;2023-10-08T15:32:49;17.20;;;6.90;;
62037;SDS011;47991;42.974;12.082;2023-10-08T15:35:17;10.00;;;6.90;;
62037;SDS011;47991;42.974;12.082;2023-10-08T15:37:50;18.00;;;6.60;;
62037;SDS011;47991;42.974;12.082;2023-10-08T15:40:17;12.70;;;6.60;;
62037;SDS011;47991;42.974;12.082;2023-10-08T15:42:49;15.00;;;7.10;;
62037;SDS011;47991;42.974;12.082;2023-10-08T15:45:21;15.40;;;6.70;;